sensor_id;sensor_type;location;lat;lon;timestamp;P1;durP1;ratioP1;P2;durP2;ratioP2
22070;SDS011;11200;51.488;6.668;2023-05-07T00:02:20;2.63;;;2.42;;
22070;SDS011;11200;51.488;6.668;2023-05-07T00:04:47;2.90;;;2.50;;
22070;SDS011;11200;51.488;6.668;2023-05-07T00:07:13;2.40;;;2.20;;
22070;SDS011;11200;51.488;6.668;2023-05-07T00:09:39;2.97;;;2.40;;
22070;SDS011;11200;51.488;6.668;2023-05-07T00:12:05;2.67;;;2.45;;
22070;SDS011;11200;51.488;6.668;2023-05-07T00:14:31;2.80;;;2.40;;
22070;SDS011;11200;51.488;6.668;2023-05-07T00:16:56;2.55;;;2.20;;
22070;SDS011;11200;51.488;6.668;2023-05-07T00:19:22;2.85;;;2.40;;
22070;SDS011;11200;51.488;6.668;2023-05-07T00:21:48;2.78;;;2.33;;
22070;SDS011;11200;51.488;6.668;2023-05-07T00:24:13;2.88;;;2.58;;
22070;SDS011;11200;51.488;6.668;2023-05-07T00:26:39;2.30;;;2.10;;
22070;SDS011;11200;51.488;6.668;2023-05-07T00:29:05;2.72;;;2.42;;
22070;SDS011;11200;51.488;6.668;2023-05-07T00:31:30;3.05;;;2.53;;
22070;SDS011;11200;51.488;6.668;2023-05-07T00:33:56;2.80;;;2.60;;
22070;SDS011;11200;51.488;6.668;2023-05-07T00:36:21;3.40;;;2.20;;
22070;SDS011;11200;51.488;6.668;2023-05-07T00:38:47;2.92;;;2.65;;
22070;SDS011;11200;51.488;6.668;2023-05-07T00:41:13;3.28;;;2.60;;
22070;SDS011;11200;51.488;6.668;2023-05-07T00:43:38;2.85;;;2.60;;
22070;SDS011;11200;51.488;6.668;2023-05-07T00:46:04;4.00;;;2.33;;
22070;SDS011;11200;51.488;6.668;2023-05-07T00:48:30;2.90;;;2.60;;
22070;SDS011;11200;51.488;6.668;2023-05-07T00:50:56;2.95;;;2.65;;
22070;SDS011;11200;51.488;6.668;2023-05-07T00:53:22;2.90;;;2.58;;
22070;SDS011;11200;51.488;6.668;2023-05-07T00:55:48;2.85;;;2.45;;
22070;SDS011;11200;51.488;6.668;2023-05-07T00:58:14;2.42;;;2.22;;
22070;SDS011;11200;51.488;6.668;2023-05-07T01:00:40;2.60;;;2.33;;
22070;SDS011;11200;51.488;6.668;2023-05-07T01:03:05;3.10;;;2.80;;
22070;SDS011;11200;51.488;6.668;2023-05-07T01:05:31;2.75;;;2.40;;
22070;SDS011;11200;51.488;6.668;2023-05-07T01:07:57;3.15;;;2.60;;
22070;SDS011;11200;51.488;6.668;2023-05-07T01:10:23;2.58;;;2.38;;
22070;SDS011;11200;51.488;6.668;2023-05-07T01:12:49;3.55;;;2.60;;
22070;SDS011;11200;51.488;6.668;2023-05-07T01:15:16;3.30;;;2.47;;
22070;SDS011;11200;51.488;6.668;2023-05-07T01:17:42;2.83;;;2.60;;
22070;SDS011;11200;51.488;6.668;2023-05-07T01:20:08;3.10;;;2.72;;
22070;SDS011;11200;51.488;6.668;2023-05-07T01:22:35;3.50;;;2.67;;
22070;SDS011;11200;51.488;6.668;2023-05-07T01:25:03;3.15;;;2.65;;
22070;SDS011;11200;51.488;6.668;2023-05-07T01:27:30;2.92;;;2.65;;
22070;SDS011;11200;51.488;6.668;2023-05-07T01:29:56;2.90;;;2.63;;
22070;SDS011;11200;51.488;6.668;2023-05-07T01:32:24;2.63;;;2.42;;
22070;SDS011;11200;51.488;6.668;2023-05-07T01:35:12;2.80;;;2.50;;
22070;SDS011;11200;51.488;6.668;2023-05-07T01:37:43;2.65;;;2.45;;
22070;SDS011;11200;51.488;6.668;2023-05-07T01:40:09;2.97;;;2.70;;
22070;SDS011;11200;51.488;6.668;2023-05-07T01:42:35;3.40;;;2.80;;
22070;SDS011;11200;51.488;6.668;2023-05-07T01:45:01;2.75;;;2.28;;
22070;SDS011;11200;51.488;6.668;2023-05-07T01:47:27;2.67;;;2.47;;
22070;SDS011;11200;51.488;6.668;2023-05-07T01:49:54;2.92;;;2.55;;
22070;SDS011;11200;51.488;6.668;2023-05-07T01:52:20;3.30;;;2.80;;
22070;SDS011;11200;51.488;6.668;2023-05-07T01:54:46;3.15;;;2.80;;
22070;SDS011;11200;51.488;6.668;2023-05-07T01:57:12;3.08;;;2.83;;
22070;SDS011;11200;51.488;6.668;2023-05-07T01:59:37;2.70;;;2.50;;
22070;SDS011;11200;51.488;6.668;2023-05-07T02:02:03;3.55;;;2.78;;
22070;SDS011;11200;51.488;6.668;2023-05-07T02:04:28;3.58;;;2.90;;
22070;SDS011;11200;51.488;6.668;2023-05-07T02:06:54;3.28;;;2.97;;
22070;SDS011;11200;51.488;6.668;2023-05-07T02:09:20;2.80;;;2.47;;
22070;SDS011;11200;51.488;6.668;2023-05-07T02:11:47;3.88;;;3.15;;
22070;SDS011;11200;51.488;6.668;2023-05-07T02:14:12;3.35;;;2.67;;
22070;SDS011;11200;51.488;6.668;2023-05-07T02:16:38;2.60;;;2.40;;
22070;SDS011;11200;51.488;6.668;2023-05-07T02:19:03;3.13;;;2.80;;
22070;SDS011;11200;51.488;6.668;2023-05-07T02:21:30;3.20;;;2.83;;
22070;SDS011;11200;51.488;6.668;2023-05-07T02:23:55;3.22;;;2.50;;
22070;SDS011;11200;51.488;6.668;2023-05-07T02:26:21;2.90;;;2.60;;
22070;SDS011;11200;51.488;6.668;2023-05-07T02:28:46;3.10;;;2.80;;
22070;SDS011;11200;51.488;6.668;2023-05-07T02:31:12;2.90;;;2.58;;
22070;SDS011;11200;51.488;6.668;2023-05-07T02:33:38;3.05;;;2.70;;
22070;SDS011;11200;51.488;6.668;2023-05-07T02:36:07;3.10;;;2.65;;
22070;SDS011;11200;51.488;6.668;2023-05-07T02:38:34;3.42;;;2.80;;
22070;SDS011;11200;51.488;6.668;2023-05-07T02:40:59;2.60;;;2.40;;
22070;SDS011;11200;51.488;6.668;2023-05-07T02:43:25;2.67;;;2.40;;
22070;SDS011;11200;51.488;6.668;2023-05-07T02:46:00;3.38;;;2.33;;
22070;SDS011;11200;51.488;6.668;2023-05-07T02:48:31;2.85;;;2.60;;
22070;SDS011;11200;51.488;6.668;2023-05-07T02:50:57;3.00;;;2.40;;
22070;SDS011;11200;51.488;6.668;2023-05-07T02:53:23;2.85;;;2.53;;
22070;SDS011;11200;51.488;6.668;2023-05-07T02:55:51;3.03;;;2.50;;
22070;SDS011;11200;51.488;6.668;2023-05-07T02:58:23;3.40;;;2.50;;
22070;SDS011;11200;51.488;6.668;2023-05-07T03:00:49;2.70;;;2.38;;
22070;SDS011;11200;51.488;6.668;2023-05-07T03:03:15;4.97;;;2.50;;
22070;SDS011;11200;51.488;6.668;2023-05-07T03:05:40;3.30;;;2.70;;
22070;SDS011;11200;51.488;6.668;2023-05-07T03:08:06;3.60;;;2.80;;
22070;SDS011;11200;51.488;6.668;2023-05-07T03:10:32;3.88;;;2.53;;
22070;SDS011;11200;51.488;6.668;2023-05-07T03:12:58;3.53;;;2.53;;
22070;SDS011;11200;51.488;6.668;2023-05-07T03:15:24;2.70;;;2.50;;
22070;SDS011;11200;51.488;6.668;2023-05-07T03:17:49;2.92;;;2.50;;
22070;SDS011;11200;51.488;6.668;2023-05-07T03:20:15;2.90;;;2.58;;
22070;SDS011;11200;51.488;6.668;2023-05-07T03:22:41;2.83;;;2.55;;
22070;SDS011;11200;51.488;6.668;2023-05-07T03:25:07;3.33;;;2.60;;
22070;SDS011;11200;51.488;6.668;2023-05-07T03:27:33;3.40;;;2.70;;
22070;SDS011;11200;51.488;6.668;2023-05-07T03:29:59;3.13;;;2.50;;
22070;SDS011;11200;51.488;6.668;2023-05-07T03:32:25;2.72;;;2.38;;
22070;SDS011;11200;51.488;6.668;2023-05-07T03:34:51;2.58;;;2.38;;
22070;SDS011;11200;51.488;6.668;2023-05-07T03:37:17;2.50;;;2.30;;
22070;SDS011;11200;51.488;6.668;2023-05-07T03:39:42;3.92;;;2.67;;
22070;SDS011;11200;51.488;6.668;2023-05-07T03:42:08;2.70;;;2.30;;
22070;SDS011;11200;51.488;6.668;2023-05-07T03:44:34;2.92;;;2.47;;
22070;SDS011;11200;51.488;6.668;2023-05-07T03:47:01;2.63;;;2.38;;
22070;SDS011;11200;51.488;6.668;2023-05-07T03:49:27;2.60;;;2.40;;
22070;SDS011;11200;51.488;6.668;2023-05-07T03:51:53;3.22;;;2.50;;
22070;SDS011;11200;51.488;6.668;2023-05-07T03:54:18;2.78;;;2.50;;
22070;SDS011;11200;51.488;6.668;2023-05-07T03:56:44;2.72;;;2.53;;
22070;SDS011;11200;51.488;6.668;2023-05-07T03:59:10;2.95;;;2.65;;
22070;SDS011;11200;51.488;6.668;2023-05-07T04:01:36;3.17;;;2.65;;
22070;SDS011;11200;51.488;6.668;2023-05-07T04:04:02;2.60;;;2.40;;
22070;SDS011;11200;51.488;6.668;2023-05-07T04:06:28;3.00;;;2.70;;
22070;SDS011;11200;51.488;6.668;2023-05-07T04:08:53;2.70;;;2.50;;
22070;SDS011;11200;51.488;6.668;2023-05-07T04:11:19;3.13;;;2.70;;
22070;SDS011;11200;51.488;6.668;2023-05-07T04:13:45;2.95;;;2.65;;
22070;SDS011;11200;51.488;6.668;2023-05-07T04:16:10;3.03;;;2.50;;
22070;SDS011;11200;51.488;6.668;2023-05-07T04:18:36;3.17;;;2.83;;
22070;SDS011;11200;51.488;6.668;2023-05-07T04:21:02;2.67;;;2.40;;
22070;SDS011;11200;51.488;6.668;2023-05-07T04:23:27;3.15;;;2.60;;
22070;SDS011;11200;51.488;6.668;2023-05-07T04:25:53;2.97;;;2.67;;
22070;SDS011;11200;51.488;6.668;2023-05-07T04:28:19;3.13;;;2.80;;
22070;SDS011;11200;51.488;6.668;2023-05-07T04:30:45;2.30;;;2.10;;
22070;SDS011;11200;51.488;6.668;2023-05-07T04:33:11;2.55;;;2.35;;
22070;SDS011;11200;51.488;6.668;2023-05-07T04:35:36;2.50;;;2.30;;
22070;SDS011;11200;51.488;6.668;2023-05-07T04:38:02;2.80;;;2.30;;
22070;SDS011;11200;51.488;6.668;2023-05-07T04:40:28;2.65;;;2.38;;
22070;SDS011;11200;51.488;6.668;2023-05-07T04:42:54;2.85;;;2.55;;
22070;SDS011;11200;51.488;6.668;2023-05-07T04:45:20;2.75;;;2.40;;
22070;SDS011;11200;51.488;6.668;2023-05-07T04:47:45;2.78;;;2.50;;
22070;SDS011;11200;51.488;6.668;2023-05-07T04:50:11;2.85;;;2.47;;
22070;SDS011;11200;51.488;6.668;2023-05-07T04:52:36;3.03;;;2.60;;
22070;SDS011;11200;51.488;6.668;2023-05-07T04:55:02;2.80;;;2.55;;
22070;SDS011;11200;51.488;6.668;2023-05-07T04:57:28;2.90;;;2.60;;
22070;SDS011;11200;51.488;6.668;2023-05-07T04:59:54;3.88;;;2.70;;
22070;SDS011;11200;51.488;6.668;2023-05-07T05:02:19;3.03;;;2.70;;
22070;SDS011;11200;51.488;6.668;2023-05-07T05:04:45;2.90;;;2.47;;
22070;SDS011;11200;51.488;6.668;2023-05-07T05:07:11;2.67;;;2.42;;
22070;SDS011;11200;51.488;6.668;2023-05-07T05:09:36;3.83;;;2.33;;
22070;SDS011;11200;51.488;6.668;2023-05-07T05:12:02;2.95;;;2.65;;
22070;SDS011;11200;51.488;6.668;2023-05-07T05:14:28;2.72;;;2.30;;
22070;SDS011;11200;51.488;6.668;2023-05-07T05:16:54;2.25;;;2.05;;
22070;SDS011;11200;51.488;6.668;2023-05-07T05:19:20;3.00;;;2.53;;
22070;SDS011;11200;51.488;6.668;2023-05-07T05:21:45;2.30;;;2.03;;
22070;SDS011;11200;51.488;6.668;2023-05-07T05:24:11;2.60;;;2.40;;
22070;SDS011;11200;51.488;6.668;2023-05-07T05:26:37;2.47;;;2.28;;
22070;SDS011;11200;51.488;6.668;2023-05-07T05:29:02;2.35;;;2.15;;
22070;SDS011;11200;51.488;6.668;2023-05-07T05:31:28;2.40;;;2.20;;
22070;SDS011;11200;51.488;6.668;2023-05-07T05:33:53;2.15;;;2.05;;
22070;SDS011;11200;51.488;6.668;2023-05-07T05:36:19;2.85;;;2.40;;
22070;SDS011;11200;51.488;6.668;2023-05-07T05:38:45;2.95;;;2.60;;
22070;SDS011;11200;51.488;6.668;2023-05-07T05:41:11;3.17;;;2.88;;
22070;SDS011;11200;51.488;6.668;2023-05-07T05:43:36;3.15;;;2.85;;
22070;SDS011;11200;51.488;6.668;2023-05-07T05:46:02;3.13;;;2.83;;
22070;SDS011;11200;51.488;6.668;2023-05-07T05:48:29;3.03;;;2.72;;
22070;SDS011;11200;51.488;6.668;2023-05-07T05:50:55;3.08;;;2.78;;
22070;SDS011;11200;51.488;6.668;2023-05-07T05:53:20;3.78;;;2.67;;
22070;SDS011;11200;51.488;6.668;2023-05-07T05:55:46;3.85;;;3.30;;
22070;SDS011;11200;51.488;6.668;2023-05-07T05:58:12;3.92;;;3.50;;
22070;SDS011;11200;51.488;6.668;2023-05-07T06:00:38;4.03;;;2.92;;
22070;SDS011;11200;51.488;6.668;2023-05-07T06:03:03;4.13;;;3.17;;
22070;SDS011;11200;51.488;6.668;2023-05-07T06:05:29;4.38;;;3.95;;
22070;SDS011;11200;51.488;6.668;2023-05-07T06:07:55;5.13;;;3.83;;
22070;SDS011;11200;51.488;6.668;2023-05-07T06:10:21;4.15;;;3.75;;
22070;SDS011;11200;51.488;6.668;2023-05-07T06:12:46;4.93;;;3.67;;
22070;SDS011;11200;51.488;6.668;2023-05-07T06:15:12;6.10;;;3.90;;
22070;SDS011;11200;51.488;6.668;2023-05-07T06:17:37;4.53;;;3.80;;
22070;SDS011;11200;51.488;6.668;2023-05-07T06:20:03;4.40;;;4.00;;
22070;SDS011;11200;51.488;6.668;2023-05-07T06:22:29;4.63;;;3.75;;
22070;SDS011;11200;51.488;6.668;2023-05-07T06:24:55;5.13;;;3.63;;
22070;SDS011;11200;51.488;6.668;2023-05-07T06:27:20;4.90;;;3.85;;
22070;SDS011;11200;51.488;6.668;2023-05-07T06:29:47;4.75;;;3.50;;
22070;SDS011;11200;51.488;6.668;2023-05-07T06:32:13;4.18;;;3.60;;
22070;SDS011;11200;51.488;6.668;2023-05-07T06:34:42;3.88;;;3.35;;
22070;SDS011;11200;51.488;6.668;2023-05-07T06:37:07;3.85;;;3.45;;
22070;SDS011;11200;51.488;6.668;2023-05-07T06:39:33;4.95;;;3.58;;
22070;SDS011;11200;51.488;6.668;2023-05-07T06:41:59;3.65;;;3.30;;
22070;SDS011;11200;51.488;6.668;2023-05-07T06:44:26;4.25;;;3.45;;
22070;SDS011;11200;51.488;6.668;2023-05-07T06:46:52;4.03;;;3.63;;
22070;SDS011;11200;51.488;6.668;2023-05-07T06:49:17;3.75;;;3.45;;
22070;SDS011;11200;51.488;6.668;2023-05-07T06:51:43;3.67;;;3.20;;
22070;SDS011;11200;51.488;6.668;2023-05-07T06:54:08;5.40;;;3.70;;
22070;SDS011;11200;51.488;6.668;2023-05-07T06:56:34;4.07;;;3.45;;
22070;SDS011;11200;51.488;6.668;2023-05-07T06:59:01;4.40;;;3.60;;
22070;SDS011;11200;51.488;6.668;2023-05-07T07:01:28;4.00;;;3.60;;
22070;SDS011;11200;51.488;6.668;2023-05-07T07:03:53;4.20;;;3.75;;
22070;SDS011;11200;51.488;6.668;2023-05-07T07:06:25;4.82;;;3.55;;
22070;SDS011;11200;51.488;6.668;2023-05-07T07:08:56;4.72;;;4.10;;
22070;SDS011;11200;51.488;6.668;2023-05-07T07:11:32;3.88;;;3.38;;
22070;SDS011;11200;51.488;6.668;2023-05-07T07:14:04;5.10;;;3.83;;
22070;SDS011;11200;51.488;6.668;2023-05-07T07:16:36;4.65;;;3.55;;
22070;SDS011;11200;51.488;6.668;2023-05-07T07:19:01;5.18;;;3.47;;
22070;SDS011;11200;51.488;6.668;2023-05-07T07:21:30;4.75;;;3.90;;
22070;SDS011;11200;51.488;6.668;2023-05-07T07:23:56;4.18;;;3.30;;
22070;SDS011;11200;51.488;6.668;2023-05-07T07:26:21;5.00;;;3.63;;
22070;SDS011;11200;51.488;6.668;2023-05-07T07:28:47;4.85;;;3.88;;
22070;SDS011;11200;51.488;6.668;2023-05-07T07:31:13;4.72;;;3.78;;
22070;SDS011;11200;51.488;6.668;2023-05-07T07:33:39;4.82;;;3.55;;
22070;SDS011;11200;51.488;6.668;2023-05-07T07:36:05;5.50;;;3.50;;
22070;SDS011;11200;51.488;6.668;2023-05-07T07:38:32;4.63;;;3.60;;
22070;SDS011;11200;51.488;6.668;2023-05-07T07:40:58;4.38;;;3.58;;
22070;SDS011;11200;51.488;6.668;2023-05-07T07:43:23;4.35;;;3.40;;
22070;SDS011;11200;51.488;6.668;2023-05-07T07:45:50;5.10;;;3.47;;
22070;SDS011;11200;51.488;6.668;2023-05-07T07:48:16;4.35;;;3.42;;
22070;SDS011;11200;51.488;6.668;2023-05-07T07:50:41;4.78;;;3.47;;
22070;SDS011;11200;51.488;6.668;2023-05-07T07:53:13;3.80;;;3.35;;
22070;SDS011;11200;51.488;6.668;2023-05-07T07:55:39;4.07;;;3.30;;
22070;SDS011;11200;51.488;6.668;2023-05-07T07:58:05;3.88;;;3.22;;
22070;SDS011;11200;51.488;6.668;2023-05-07T08:00:30;3.72;;;3.30;;
22070;SDS011;11200;51.488;6.668;2023-05-07T08:02:56;4.05;;;2.88;;
22070;SDS011;11200;51.488;6.668;2023-05-07T08:05:22;4.30;;;3.20;;
22070;SDS011;11200;51.488;6.668;2023-05-07T08:07:48;4.53;;;3.45;;
22070;SDS011;11200;51.488;6.668;2023-05-07T08:10:17;4.40;;;3.50;;
22070;SDS011;11200;51.488;6.668;2023-05-07T08:12:47;4.07;;;3.22;;
22070;SDS011;11200;51.488;6.668;2023-05-07T08:15:13;4.60;;;3.30;;
22070;SDS011;11200;51.488;6.668;2023-05-07T08:17:39;5.07;;;3.58;;
22070;SDS011;11200;51.488;6.668;2023-05-07T08:20:05;4.55;;;3.38;;
22070;SDS011;11200;51.488;6.668;2023-05-07T08:22:32;4.68;;;3.30;;
22070;SDS011;11200;51.488;6.668;2023-05-07T08:24:59;5.28;;;3.40;;
22070;SDS011;11200;51.488;6.668;2023-05-07T08:27:25;3.28;;;2.97;;
22070;SDS011;11200;51.488;6.668;2023-05-07T08:29:50;5.10;;;3.22;;
22070;SDS011;11200;51.488;6.668;2023-05-07T08:32:16;3.40;;;3.05;;
22070;SDS011;11200;51.488;6.668;2023-05-07T08:34:42;4.20;;;3.40;;
22070;SDS011;11200;51.488;6.668;2023-05-07T08:37:07;3.53;;;2.90;;
22070;SDS011;11200;51.488;6.668;2023-05-07T08:39:33;4.20;;;3.08;;
22070;SDS011;11200;51.488;6.668;2023-05-07T08:42:02;3.90;;;3.10;;
22070;SDS011;11200;51.488;6.668;2023-05-07T08:44:33;3.90;;;3.08;;
22070;SDS011;11200;51.488;6.668;2023-05-07T08:47:06;3.53;;;3.15;;
22070;SDS011;11200;51.488;6.668;2023-05-07T08:49:33;3.70;;;2.95;;
22070;SDS011;11200;51.488;6.668;2023-05-07T08:51:59;4.78;;;3.17;;
22070;SDS011;11200;51.488;6.668;2023-05-07T08:54:25;3.75;;;3.10;;
22070;SDS011;11200;51.488;6.668;2023-05-07T08:56:52;4.57;;;3.20;;
22070;SDS011;11200;51.488;6.668;2023-05-07T08:59:18;5.78;;;3.40;;
22070;SDS011;11200;51.488;6.668;2023-05-07T09:01:43;3.30;;;3.00;;
22070;SDS011;11200;51.488;6.668;2023-05-07T09:04:09;5.07;;;2.90;;
22070;SDS011;11200;51.488;6.668;2023-05-07T09:06:35;4.15;;;2.90;;
22070;SDS011;11200;51.488;6.668;2023-05-07T09:09:02;3.67;;;3.13;;
22070;SDS011;11200;51.488;6.668;2023-05-07T09:11:30;3.85;;;2.60;;
22070;SDS011;11200;51.488;6.668;2023-05-07T09:13:56;3.35;;;3.05;;
22070;SDS011;11200;51.488;6.668;2023-05-07T09:16:24;4.20;;;2.90;;
22070;SDS011;11200;51.488;6.668;2023-05-07T09:18:51;4.45;;;2.97;;
22070;SDS011;11200;51.488;6.668;2023-05-07T09:21:18;3.58;;;3.03;;
22070;SDS011;11200;51.488;6.668;2023-05-07T09:23:45;3.80;;;3.00;;
22070;SDS011;11200;51.488;6.668;2023-05-07T09:26:13;4.10;;;3.15;;
22070;SDS011;11200;51.488;6.668;2023-05-07T09:28:39;4.03;;;2.97;;
22070;SDS011;11200;51.488;6.668;2023-05-07T09:31:09;4.63;;;3.00;;
22070;SDS011;11200;51.488;6.668;2023-05-07T09:33:35;3.65;;;2.70;;
22070;SDS011;11200;51.488;6.668;2023-05-07T09:36:05;3.63;;;2.85;;
22070;SDS011;11200;51.488;6.668;2023-05-07T09:38:34;3.70;;;3.15;;
22070;SDS011;11200;51.488;6.668;2023-05-07T09:41:01;3.90;;;3.00;;
22070;SDS011;11200;51.488;6.668;2023-05-07T09:43:34;5.40;;;3.05;;
22070;SDS011;11200;51.488;6.668;2023-05-07T09:46:06;4.00;;;2.90;;
22070;SDS011;11200;51.488;6.668;2023-05-07T09:48:39;5.35;;;3.28;;
22070;SDS011;11200;51.488;6.668;2023-05-07T09:51:15;3.58;;;2.65;;
22070;SDS011;11200;51.488;6.668;2023-05-07T09:53:52;3.30;;;2.50;;
22070;SDS011;11200;51.488;6.668;2023-05-07T09:56:18;5.50;;;2.75;;
22070;SDS011;11200;51.488;6.668;2023-05-07T09:58:45;3.97;;;2.58;;
22070;SDS011;11200;51.488;6.668;2023-05-07T10:01:12;3.40;;;2.50;;
22070;SDS011;11200;51.488;6.668;2023-05-07T10:03:39;3.40;;;2.47;;
22070;SDS011;11200;51.488;6.668;2023-05-07T10:06:08;2.90;;;2.40;;
22070;SDS011;11200;51.488;6.668;2023-05-07T10:08:35;3.63;;;2.67;;
22070;SDS011;11200;51.488;6.668;2023-05-07T10:11:01;4.35;;;2.38;;
22070;SDS011;11200;51.488;6.668;2023-05-07T10:13:28;5.03;;;2.67;;
22070;SDS011;11200;51.488;6.668;2023-05-07T10:15:55;3.22;;;2.60;;
22070;SDS011;11200;51.488;6.668;2023-05-07T10:18:21;3.05;;;2.65;;
22070;SDS011;11200;51.488;6.668;2023-05-07T10:20:48;3.90;;;2.45;;
22070;SDS011;11200;51.488;6.668;2023-05-07T10:23:18;2.45;;;2.25;;
22070;SDS011;11200;51.488;6.668;2023-05-07T10:25:48;2.88;;;2.25;;
22070;SDS011;11200;51.488;6.668;2023-05-07T10:28:14;3.20;;;2.33;;
22070;SDS011;11200;51.488;6.668;2023-05-07T10:30:55;3.10;;;2.20;;
22070;SDS011;11200;51.488;6.668;2023-05-07T10:33:32;2.42;;;2.05;;
22070;SDS011;11200;51.488;6.668;2023-05-07T10:36:00;2.83;;;2.13;;
22070;SDS011;11200;51.488;6.668;2023-05-07T10:38:29;4.25;;;2.30;;
22070;SDS011;11200;51.488;6.668;2023-05-07T10:40:55;3.58;;;2.10;;
22070;SDS011;11200;51.488;6.668;2023-05-07T10:43:21;2.47;;;2.17;;
22070;SDS011;11200;51.488;6.668;2023-05-07T10:48:35;2.30;;;1.92;;
22070;SDS011;11200;51.488;6.668;2023-05-07T10:51:31;4.00;;;2.10;;
22070;SDS011;11200;51.488;6.668;2023-05-07T10:56:45;2.92;;;2.20;;
22070;SDS011;11200;51.488;6.668;2023-05-07T11:04:28;2.20;;;2.00;;
22070;SDS011;11200;51.488;6.668;2023-05-07T11:12:16;2.63;;;2.10;;
22070;SDS011;11200;51.488;6.668;2023-05-07T11:17:08;2.42;;;2.03;;
22070;SDS011;11200;51.488;6.668;2023-05-07T11:19:50;3.55;;;2.17;;
22070;SDS011;11200;51.488;6.668;2023-05-07T11:25:01;4.13;;;2.20;;
22070;SDS011;11200;51.488;6.668;2023-05-07T11:27:28;2.10;;;1.90;;
22070;SDS011;11200;51.488;6.668;2023-05-07T11:29:54;3.25;;;2.03;;
22070;SDS011;11200;51.488;6.668;2023-05-07T11:34:58;2.15;;;1.92;;
22070;SDS011;11200;51.488;6.668;2023-05-07T11:37:25;3.03;;;1.90;;
22070;SDS011;11200;51.488;6.668;2023-05-07T11:40:03;2.47;;;2.00;;
22070;SDS011;11200;51.488;6.668;2023-05-07T11:42:32;1.83;;;1.60;;
22070;SDS011;11200;51.488;6.668;2023-05-07T11:44:59;2.47;;;2.20;;
22070;SDS011;11200;51.488;6.668;2023-05-07T11:47:25;3.85;;;2.20;;
22070;SDS011;11200;51.488;6.668;2023-05-07T11:49:52;2.70;;;1.83;;
22070;SDS011;11200;51.488;6.668;2023-05-07T11:52:19;3.15;;;1.80;;
22070;SDS011;11200;51.488;6.668;2023-05-07T11:57:15;2.90;;;2.00;;
22070;SDS011;11200;51.488;6.668;2023-05-07T11:59:42;3.17;;;1.90;;
22070;SDS011;11200;51.488;6.668;2023-05-07T12:02:13;2.38;;;1.80;;
22070;SDS011;11200;51.488;6.668;2023-05-07T12:04:40;2.42;;;1.90;;
22070;SDS011;11200;51.488;6.668;2023-05-07T12:07:06;2.55;;;1.90;;
22070;SDS011;11200;51.488;6.668;2023-05-07T12:09:43;1.98;;;1.70;;
22070;SDS011;11200;51.488;6.668;2023-05-07T12:12:10;2.13;;;1.90;;
22070;SDS011;11200;51.488;6.668;2023-05-07T12:14:40;2.50;;;1.77;;
22070;SDS011;11200;51.488;6.668;2023-05-07T12:17:07;2.97;;;2.10;;
22070;SDS011;11200;51.488;6.668;2023-05-07T12:19:34;2.35;;;2.10;;
22070;SDS011;11200;51.488;6.668;2023-05-07T12:22:03;2.55;;;1.98;;
22070;SDS011;11200;51.488;6.668;2023-05-07T12:24:42;2.50;;;2.05;;
22070;SDS011;11200;51.488;6.668;2023-05-07T12:27:12;2.15;;;1.95;;
22070;SDS011;11200;51.488;6.668;2023-05-07T12:29:38;2.38;;;1.77;;
22070;SDS011;11200;51.488;6.668;2023-05-07T12:32:06;2.20;;;1.88;;
22070;SDS011;11200;51.488;6.668;2023-05-07T12:34:32;3.38;;;1.83;;
22070;SDS011;11200;51.488;6.668;2023-05-07T12:36:57;1.63;;;1.52;;
22070;SDS011;11200;51.488;6.668;2023-05-07T12:39:28;2.25;;;1.90;;
22070;SDS011;11200;51.488;6.668;2023-05-07T12:41:54;2.17;;;1.90;;
22070;SDS011;11200;51.488;6.668;2023-05-07T12:44:25;2.75;;;1.90;;
22070;SDS011;11200;51.488;6.668;2023-05-07T12:46:54;1.65;;;1.55;;
22070;SDS011;11200;51.488;6.668;2023-05-07T12:49:20;1.73;;;1.60;;
22070;SDS011;11200;51.488;6.668;2023-05-07T12:51:46;3.28;;;1.88;;
22070;SDS011;11200;51.488;6.668;2023-05-07T12:54:13;2.40;;;1.75;;
22070;SDS011;11200;51.488;6.668;2023-05-07T12:56:59;2.70;;;2.00;;
22070;SDS011;11200;51.488;6.668;2023-05-07T12:59:37;2.22;;;1.65;;
22070;SDS011;11200;51.488;6.668;2023-05-07T13:02:07;2.17;;;1.80;;
22070;SDS011;11200;51.488;6.668;2023-05-07T13:04:33;2.08;;;1.77;;
22070;SDS011;11200;51.488;6.668;2023-05-07T13:06:59;2.10;;;1.80;;
22070;SDS011;11200;51.488;6.668;2023-05-07T13:09:25;2.95;;;1.80;;
22070;SDS011;11200;51.488;6.668;2023-05-07T13:11:51;2.35;;;1.85;;
22070;SDS011;11200;51.488;6.668;2023-05-07T13:14:16;2.38;;;1.90;;
22070;SDS011;11200;51.488;6.668;2023-05-07T13:16:42;1.98;;;1.85;;
22070;SDS011;11200;51.488;6.668;2023-05-07T13:19:08;2.20;;;1.90;;
22070;SDS011;11200;51.488;6.668;2023-05-07T13:21:34;2.20;;;2.00;;
22070;SDS011;11200;51.488;6.668;2023-05-07T13:24:00;2.08;;;1.80;;
22070;SDS011;11200;51.488;6.668;2023-05-07T13:26:26;2.42;;;2.05;;
22070;SDS011;11200;51.488;6.668;2023-05-07T13:28:54;3.17;;;1.80;;
22070;SDS011;11200;51.488;6.668;2023-05-07T13:31:23;2.08;;;1.88;;
22070;SDS011;11200;51.488;6.668;2023-05-07T13:33:49;2.10;;;1.90;;
22070;SDS011;11200;51.488;6.668;2023-05-07T13:36:15;2.65;;;2.00;;
22070;SDS011;11200;51.488;6.668;2023-05-07T13:38:41;2.22;;;2.03;;
22070;SDS011;11200;51.488;6.668;2023-05-07T13:41:07;2.05;;;1.73;;
22070;SDS011;11200;51.488;6.668;2023-05-07T13:43:32;2.20;;;2.00;;
22070;SDS011;11200;51.488;6.668;2023-05-07T13:45:58;2.35;;;1.98;;
22070;SDS011;11200;51.488;6.668;2023-05-07T13:48:25;1.90;;;1.70;;
22070;SDS011;11200;51.488;6.668;2023-05-07T13:50:51;2.35;;;2.00;;
22070;SDS011;11200;51.488;6.668;2023-05-07T13:53:19;1.98;;;1.88;;
22070;SDS011;11200;51.488;6.668;2023-05-07T13:55:45;2.10;;;1.90;;
22070;SDS011;11200;51.488;6.668;2023-05-07T13:58:11;2.63;;;2.00;;
22070;SDS011;11200;51.488;6.668;2023-05-07T14:00:36;2.40;;;1.90;;
22070;SDS011;11200;51.488;6.668;2023-05-07T14:03:03;2.22;;;2.00;;
22070;SDS011;11200;51.488;6.668;2023-05-07T14:05:29;2.20;;;2.00;;
22070;SDS011;11200;51.488;6.668;2023-05-07T14:07:58;2.42;;;1.90;;
22070;SDS011;11200;51.488;6.668;2023-05-07T14:10:24;3.03;;;2.10;;
22070;SDS011;11200;51.488;6.668;2023-05-07T14:12:50;2.10;;;1.90;;
22070;SDS011;11200;51.488;6.668;2023-05-07T14:15:20;3.05;;;2.42;;
22070;SDS011;11200;51.488;6.668;2023-05-07T14:17:46;2.60;;;2.40;;
22070;SDS011;11200;51.488;6.668;2023-05-07T14:20:13;2.25;;;2.05;;
22070;SDS011;11200;51.488;6.668;2023-05-07T14:22:38;2.40;;;2.20;;
22070;SDS011;11200;51.488;6.668;2023-05-07T14:25:04;4.10;;;2.13;;
22070;SDS011;11200;51.488;6.668;2023-05-07T14:27:30;2.85;;;2.05;;
22070;SDS011;11200;51.488;6.668;2023-05-07T14:29:56;2.80;;;2.55;;
22070;SDS011;11200;51.488;6.668;2023-05-07T14:32:23;2.45;;;2.20;;
22070;SDS011;11200;51.488;6.668;2023-05-07T14:34:49;2.50;;;2.30;;
22070;SDS011;11200;51.488;6.668;2023-05-07T14:37:15;3.50;;;2.58;;
22070;SDS011;11200;51.488;6.668;2023-05-07T14:39:41;3.05;;;2.75;;
22070;SDS011;11200;51.488;6.668;2023-05-07T14:42:06;3.65;;;2.60;;
22070;SDS011;11200;51.488;6.668;2023-05-07T14:44:33;2.50;;;2.30;;
22070;SDS011;11200;51.488;6.668;2023-05-07T14:47:00;2.78;;;2.50;;
22070;SDS011;11200;51.488;6.668;2023-05-07T14:49:26;2.55;;;2.35;;
22070;SDS011;11200;51.488;6.668;2023-05-07T14:51:52;2.47;;;2.15;;
22070;SDS011;11200;51.488;6.668;2023-05-07T14:54:18;2.85;;;2.45;;
22070;SDS011;11200;51.488;6.668;2023-05-07T14:56:44;2.90;;;2.50;;
22070;SDS011;11200;51.488;6.668;2023-05-07T14:59:10;2.83;;;2.55;;
22070;SDS011;11200;51.488;6.668;2023-05-07T15:01:37;2.95;;;2.67;;
22070;SDS011;11200;51.488;6.668;2023-05-07T15:04:05;3.80;;;2.75;;
22070;SDS011;11200;51.488;6.668;2023-05-07T15:06:31;2.78;;;2.58;;
22070;SDS011;11200;51.488;6.668;2023-05-07T15:08:57;3.20;;;2.53;;
22070;SDS011;11200;51.488;6.668;2023-05-07T15:11:23;2.95;;;2.70;;
22070;SDS011;11200;51.488;6.668;2023-05-07T15:13:49;3.40;;;2.75;;